sensor_id;sensor_type;location;lat;lon;timestamp;P1;durP1;ratioP1;P2;durP2;ratioP2
75171;SDS011;63750;52.418;20.742;2023-03-12T00:01:13;12.70;;;11.00;;
75171;SDS011;63750;52.418;20.742;2023-03-12T00:03:42;15.60;;;12.00;;
75171;SDS011;63750;52.418;20.742;2023-03-12T00:06:10;15.50;;;12.10;;
75171;SDS011;63750;52.418;20.742;2023-03-12T00:08:37;13.40;;;11.50;;
75171;SDS011;63750;52.418;20.742;2023-03-12T00:11:05;14.60;;;12.00;;
75171;SDS011;63750;52.418;20.742;2023-03-12T00:13:33;14.80;;;11.90;;
75171;SDS011;63750;52.418;20.742;2023-03-12T00:16:06;13.90;;;12.10;;
75171;SDS011;63750;52.418;20.742;2023-03-12T00:18:35;15.20;;;12.90;;
75171;SDS011;63750;52.418;20.742;2023-03-12T00:21:03;14.20;;;12.40;;
75171;SDS011;63750;52.418;20.742;2023-03-12T00:23:30;12.90;;;11.50;;
75171;SDS011;63750;52.418;20.742;2023-03-12T00:26:01;15.10;;;12.80;;
75171;SDS011;63750;52.418;20.742;2023-03-12T00:28:29;14.30;;;12.20;;
75171;SDS011;63750;52.418;20.742;2023-03-12T00:30:57;15.40;;;12.20;;
75171;SDS011;63750;52.418;20.742;2023-03-12T00:33:25;16.50;;;13.30;;
75171;SDS011;63750;52.418;20.742;2023-03-12T00:35:54;17.40;;;12.50;;
75171;SDS011;63750;52.418;20.742;2023-03-12T00:38:25;15.50;;;12.90;;
75171;SDS011;63750;52.418;20.742;2023-03-12T00:40:52;14.30;;;12.70;;
75171;SDS011;63750;52.418;20.742;2023-03-12T00:43:19;16.60;;;13.00;;
75171;SDS011;63750;52.418;20.742;2023-03-12T00:45:46;14.30;;;12.80;;
75171;SDS011;63750;52.418;20.742;2023-03-12T00:48:13;14.00;;;12.50;;
75171;SDS011;63750;52.418;20.742;2023-03-12T00:50:40;15.40;;;12.60;;
75171;SDS011;63750;52.418;20.742;2023-03-12T00:53:08;13.40;;;12.00;;
75171;SDS011;63750;52.418;20.742;2023-03-12T00:55:35;13.50;;;12.10;;
75171;SDS011;63750;52.418;20.742;2023-03-12T00:58:02;15.30;;;12.50;;
75171;SDS011;63750;52.418;20.742;2023-03-12T01:00:29;14.50;;;12.10;;
75171;SDS011;63750;52.418;20.742;2023-03-12T01:02:56;15.10;;;11.50;;
75171;SDS011;63750;52.418;20.742;2023-03-12T01:05:24;13.70;;;11.20;;
75171;SDS011;63750;52.418;20.742;2023-03-12T01:07:51;13.30;;;11.90;;
75171;SDS011;63750;52.418;20.742;2023-03-12T01:10:19;13.20;;;11.80;;
75171;SDS011;63750;52.418;20.742;2023-03-12T01:12:47;13.70;;;12.10;;
75171;SDS011;63750;52.418;20.742;2023-03-12T01:15:15;14.30;;;11.50;;
75171;SDS011;63750;52.418;20.742;2023-03-12T01:17:45;12.80;;;11.40;;
75171;SDS011;63750;52.418;20.742;2023-03-12T01:20:12;13.60;;;11.60;;
75171;SDS011;63750;52.418;20.742;2023-03-12T01:22:39;13.20;;;11.80;;
75171;SDS011;63750;52.418;20.742;2023-03-12T01:25:07;15.40;;;13.00;;
75171;SDS011;63750;52.418;20.742;2023-03-12T01:27:35;14.80;;;12.50;;
75171;SDS011;63750;52.418;20.742;2023-03-12T01:30:02;14.20;;;11.70;;
75171;SDS011;63750;52.418;20.742;2023-03-12T01:32:31;14.00;;;11.50;;
75171;SDS011;63750;52.418;20.742;2023-03-12T01:34:58;13.10;;;11.70;;
75171;SDS011;63750;52.418;20.742;2023-03-12T01:37:26;13.80;;;11.60;;
75171;SDS011;63750;52.418;20.742;2023-03-12T01:39:53;13.90;;;11.40;;
75171;SDS011;63750;52.418;20.742;2023-03-12T01:42:20;13.50;;;12.10;;
75171;SDS011;63750;52.418;20.742;2023-03-12T01:44:52;14.40;;;11.90;;
75171;SDS011;63750;52.418;20.742;2023-03-12T01:47:20;13.20;;;11.70;;
75171;SDS011;63750;52.418;20.742;2023-03-12T01:49:49;13.10;;;11.70;;
75171;SDS011;63750;52.418;20.742;2023-03-12T01:52:19;13.00;;;11.10;;
75171;SDS011;63750;52.418;20.742;2023-03-12T01:54:51;12.90;;;11.50;;
75171;SDS011;63750;52.418;20.742;2023-03-12T01:57:25;12.70;;;10.80;;
75171;SDS011;63750;52.418;20.742;2023-03-12T01:59:57;13.30;;;11.20;;
75171;SDS011;63750;52.418;20.742;2023-03-12T02:02:27;12.60;;;11.40;;
75171;SDS011;63750;52.418;20.742;2023-03-12T02:04:56;12.60;;;11.10;;
75171;SDS011;63750;52.418;20.742;2023-03-12T02:07:42;12.40;;;11.10;;
75171;SDS011;63750;52.418;20.742;2023-03-12T02:10:10;12.40;;;10.90;;
75171;SDS011;63750;52.418;20.742;2023-03-12T02:12:37;14.00;;;11.80;;
75171;SDS011;63750;52.418;20.742;2023-03-12T02:15:06;13.80;;;11.40;;
75171;SDS011;63750;52.418;20.742;2023-03-12T02:17:35;13.00;;;11.60;;
75171;SDS011;63750;52.418;20.742;2023-03-12T02:20:09;12.70;;;11.40;;
75171;SDS011;63750;52.418;20.742;2023-03-12T02:22:43;13.40;;;11.30;;
75171;SDS011;63750;52.418;20.742;2023-03-12T02:28:04;13.60;;;12.10;;
75171;SDS011;63750;52.418;20.742;2023-03-12T02:30:33;14.50;;;12.50;;
75171;SDS011;63750;52.418;20.742;2023-03-12T02:33:04;13.10;;;11.60;;
75171;SDS011;63750;52.418;20.742;2023-03-12T02:35:33;14.90;;;12.10;;
75171;SDS011;63750;52.418;20.742;2023-03-12T02:38:01;14.60;;;13.00;;
75171;SDS011;63750;52.418;20.742;2023-03-12T02:40:30;14.40;;;12.80;;
75171;SDS011;63750;52.418;20.742;2023-03-12T02:43:02;13.80;;;12.40;;
75171;SDS011;63750;52.418;20.742;2023-03-12T02:45:32;14.80;;;12.90;;
75171;SDS011;63750;52.418;20.742;2023-03-12T02:48:01;14.50;;;12.90;;
75171;SDS011;63750;52.418;20.742;2023-03-12T02:50:29;16.50;;;14.40;;
75171;SDS011;63750;52.418;20.742;2023-03-12T02:52:56;15.30;;;13.70;;
75171;SDS011;63750;52.418;20.742;2023-03-12T02:55:23;14.90;;;13.00;;
75171;SDS011;63750;52.418;20.742;2023-03-12T02:57:51;15.60;;;13.00;;
75171;SDS011;63750;52.418;20.742;2023-03-12T03:00:19;15.50;;;12.00;;
75171;SDS011;63750;52.418;20.742;2023-03-12T03:02:46;17.10;;;13.50;;
75171;SDS011;63750;52.418;20.742;2023-03-12T03:05:14;13.80;;;12.20;;
75171;SDS011;63750;52.418;20.742;2023-03-12T03:07:41;17.60;;;12.30;;
75171;SDS011;63750;52.418;20.742;2023-03-12T03:10:09;14.70;;;12.30;;
75171;SDS011;63750;52.418;20.742;2023-03-12T03:12:37;13.30;;;11.60;;
75171;SDS011;63750;52.418;20.742;2023-03-12T03:15:05;13.40;;;12.00;;
75171;SDS011;63750;52.418;20.742;2023-03-12T03:17:34;14.00;;;12.10;;
75171;SDS011;63750;52.418;20.742;2023-03-12T03:20:01;13.80;;;11.70;;
75171;SDS011;63750;52.418;20.742;2023-03-12T03:22:29;13.50;;;12.10;;
75171;SDS011;63750;52.418;20.742;2023-03-12T03:24:56;13.50;;;11.70;;
75171;SDS011;63750;52.418;20.742;2023-03-12T03:27:23;13.30;;;11.40;;
75171;SDS011;63750;52.418;20.742;2023-03-12T03:29:51;13.20;;;11.80;;
75171;SDS011;63750;52.418;20.742;2023-03-12T03:32:18;15.10;;;12.20;;
75171;SDS011;63750;52.418;20.742;2023-03-12T03:34:45;13.20;;;11.30;;
75171;SDS011;63750;52.418;20.742;2023-03-12T03:37:12;13.90;;;10.90;;
75171;SDS011;63750;52.418;20.742;2023-03-12T03:39:40;15.10;;;11.90;;
75171;SDS011;63750;52.418;20.742;2023-03-12T03:42:07;13.60;;;12.00;;
75171;SDS011;63750;52.418;20.742;2023-03-12T03:44:34;15.90;;;11.30;;
75171;SDS011;63750;52.418;20.742;2023-03-12T03:47:02;12.30;;;11.00;;
75171;SDS011;63750;52.418;20.742;2023-03-12T03:49:29;14.50;;;11.40;;
75171;SDS011;63750;52.418;20.742;2023-03-12T03:51:57;11.90;;;10.60;;
75171;SDS011;63750;52.418;20.742;2023-03-12T03:54:24;13.90;;;11.30;;
75171;SDS011;63750;52.418;20.742;2023-03-12T03:56:52;12.60;;;11.30;;
75171;SDS011;63750;52.418;20.742;2023-03-12T03:59:19;12.80;;;10.90;;
75171;SDS011;63750;52.418;20.742;2023-03-12T04:01:46;12.60;;;11.30;;
75171;SDS011;63750;52.418;20.742;2023-03-12T04:04:13;11.80;;;10.60;;
75171;SDS011;63750;52.418;20.742;2023-03-12T04:06:41;11.40;;;9.90;;
75171;SDS011;63750;52.418;20.742;2023-03-12T04:09:08;11.10;;;10.00;;
75171;SDS011;63750;52.418;20.742;2023-03-12T04:11:35;11.50;;;10.30;;
75171;SDS011;63750;52.418;20.742;2023-03-12T04:14:03;10.70;;;9.70;;
75171;SDS011;63750;52.418;20.742;2023-03-12T04:16:30;10.30;;;9.20;;
75171;SDS011;63750;52.418;20.742;2023-03-12T04:18:57;11.40;;;9.90;;
75171;SDS011;63750;52.418;20.742;2023-03-12T04:21:24;11.20;;;10.00;;
75171;SDS011;63750;52.418;20.742;2023-03-12T04:23:51;10.40;;;9.40;;
75171;SDS011;63750;52.418;20.742;2023-03-12T04:26:19;10.50;;;9.30;;
75171;SDS011;63750;52.418;20.742;2023-03-12T04:28:46;9.60;;;8.60;;
75171;SDS011;63750;52.418;20.742;2023-03-12T04:31:13;10.40;;;9.30;;
75171;SDS011;63750;52.418;20.742;2023-03-12T04:33:40;9.20;;;8.30;;
75171;SDS011;63750;52.418;20.742;2023-03-12T04:36:07;9.70;;;8.50;;
75171;SDS011;63750;52.418;20.742;2023-03-12T04:38:36;9.80;;;8.80;;
75171;SDS011;63750;52.418;20.742;2023-03-12T04:41:04;9.40;;;8.50;;
75171;SDS011;63750;52.418;20.742;2023-03-12T04:43:33;9.70;;;8.30;;
75171;SDS011;63750;52.418;20.742;2023-03-12T04:46:01;9.60;;;8.50;;
75171;SDS011;63750;52.418;20.742;2023-03-12T04:48:29;9.60;;;8.60;;
75171;SDS011;63750;52.418;20.742;2023-03-12T04:50:56;9.10;;;8.30;;
75171;SDS011;63750;52.418;20.742;2023-03-12T04:53:24;10.10;;;8.10;;
75171;SDS011;63750;52.418;20.742;2023-03-12T04:55:51;8.80;;;7.90;;
75171;SDS011;63750;52.418;20.742;2023-03-12T04:58:19;8.70;;;7.80;;
75171;SDS011;63750;52.418;20.742;2023-03-12T05:00:47;9.30;;;8.20;;
75171;SDS011;63750;52.418;20.742;2023-03-12T05:03:15;9.10;;;8.00;;
75171;SDS011;63750;52.418;20.742;2023-03-12T05:05:43;9.10;;;7.60;;
75171;SDS011;63750;52.418;20.742;2023-03-12T05:08:10;8.60;;;7.80;;
75171;SDS011;63750;52.418;20.742;2023-03-12T05:10:38;9.90;;;7.90;;
75171;SDS011;63750;52.418;20.742;2023-03-12T05:13:11;8.60;;;7.70;;
75171;SDS011;63750;52.418;20.742;2023-03-12T05:15:39;10.50;;;7.60;;
75171;SDS011;63750;52.418;20.742;2023-03-12T05:18:07;8.70;;;7.80;;
75171;SDS011;63750;52.418;20.742;2023-03-12T05:20:34;8.80;;;7.70;;
75171;SDS011;63750;52.418;20.742;2023-03-12T05:23:01;8.80;;;7.90;;
75171;SDS011;63750;52.418;20.742;2023-03-12T05:25:28;8.90;;;8.00;;
75171;SDS011;63750;52.418;20.742;2023-03-12T05:27:56;8.40;;;7.60;;
75171;SDS011;63750;52.418;20.742;2023-03-12T05:30:23;10.10;;;8.20;;
75171;SDS011;63750;52.418;20.742;2023-03-12T05:32:50;8.50;;;7.60;;
75171;SDS011;63750;52.418;20.742;2023-03-12T05:35:18;8.60;;;7.80;;
75171;SDS011;63750;52.418;20.742;2023-03-12T05:37:45;8.80;;;7.90;;
75171;SDS011;63750;52.418;20.742;2023-03-12T05:40:12;12.40;;;8.30;;
75171;SDS011;63750;52.418;20.742;2023-03-12T05:42:40;9.30;;;8.10;;
75171;SDS011;63750;52.418;20.742;2023-03-12T05:45:08;8.40;;;7.60;;
75171;SDS011;63750;52.418;20.742;2023-03-12T05:47:36;9.00;;;8.00;;
75171;SDS011;63750;52.418;20.742;2023-03-12T05:50:04;9.40;;;8.40;;
75171;SDS011;63750;52.418;20.742;2023-03-12T05:52:32;8.70;;;7.90;;
75171;SDS011;63750;52.418;20.742;2023-03-12T05:55:00;10.00;;;8.00;;
75171;SDS011;63750;52.418;20.742;2023-03-12T05:57:27;8.80;;;7.90;;
75171;SDS011;63750;52.418;20.742;2023-03-12T05:59:54;9.80;;;7.50;;
75171;SDS011;63750;52.418;20.742;2023-03-12T06:02:22;7.80;;;7.10;;
75171;SDS011;63750;52.418;20.742;2023-03-12T06:04:49;9.30;;;7.70;;
75171;SDS011;63750;52.418;20.742;2023-03-12T06:07:18;8.90;;;8.00;;
75171;SDS011;63750;52.418;20.742;2023-03-12T06:09:46;9.00;;;7.90;;
75171;SDS011;63750;52.418;20.742;2023-03-12T06:12:13;7.80;;;6.90;;
75171;SDS011;63750;52.418;20.742;2023-03-12T06:14:40;8.00;;;7.30;;
75171;SDS011;63750;52.418;20.742;2023-03-12T06:17:08;8.50;;;7.20;;
75171;SDS011;63750;52.418;20.742;2023-03-12T06:19:35;9.40;;;8.40;;
75171;SDS011;63750;52.418;20.742;2023-03-12T06:22:02;12.60;;;10.10;;
75171;SDS011;63750;52.418;20.742;2023-03-12T06:24:29;8.60;;;7.80;;
75171;SDS011;63750;52.418;20.742;2023-03-12T06:26:56;7.30;;;6.70;;
75171;SDS011;63750;52.418;20.742;2023-03-12T06:29:23;8.10;;;7.30;;
75171;SDS011;63750;52.418;20.742;2023-03-12T06:31:50;7.40;;;6.70;;
75171;SDS011;63750;52.418;20.742;2023-03-12T06:34:18;7.20;;;6.50;;
75171;SDS011;63750;52.418;20.742;2023-03-12T06:36:45;6.90;;;6.20;;
75171;SDS011;63750;52.418;20.742;2023-03-12T06:39:12;6.90;;;6.00;;
75171;SDS011;63750;52.418;20.742;2023-03-12T06:41:40;7.60;;;6.40;;
75171;SDS011;63750;52.418;20.742;2023-03-12T06:44:07;7.10;;;6.40;;
75171;SDS011;63750;52.418;20.742;2023-03-12T06:46:34;7.40;;;6.30;;
75171;SDS011;63750;52.418;20.742;2023-03-12T06:49:01;6.30;;;5.70;;
75171;SDS011;63750;52.418;20.742;2023-03-12T06:51:28;6.50;;;5.60;;
75171;SDS011;63750;52.418;20.742;2023-03-12T06:53:56;5.50;;;4.90;;
75171;SDS011;63750;52.418;20.742;2023-03-12T06:56:23;5.30;;;4.80;;
75171;SDS011;63750;52.418;20.742;2023-03-12T06:58:51;6.30;;;5.70;;
75171;SDS011;63750;52.418;20.742;2023-03-12T07:01:18;5.60;;;4.60;;
75171;SDS011;63750;52.418;20.742;2023-03-12T07:03:48;5.30;;;4.50;;
75171;SDS011;63750;52.418;20.742;2023-03-12T07:06:16;5.60;;;4.60;;
75171;SDS011;63750;52.418;20.742;2023-03-12T07:08:45;6.00;;;4.70;;
75171;SDS011;63750;52.418;20.742;2023-03-12T07:11:12;6.00;;;4.90;;
75171;SDS011;63750;52.418;20.742;2023-03-12T07:13:40;6.80;;;5.20;;
75171;SDS011;63750;52.418;20.742;2023-03-12T07:16:08;5.90;;;5.30;;
75171;SDS011;63750;52.418;20.742;2023-03-12T07:18:36;5.80;;;5.30;;
75171;SDS011;63750;52.418;20.742;2023-03-12T07:21:04;8.10;;;5.20;;
75171;SDS011;63750;52.418;20.742;2023-03-12T07:23:32;6.90;;;5.30;;
75171;SDS011;63750;52.418;20.742;2023-03-12T07:25:59;5.30;;;4.80;;
75171;SDS011;63750;52.418;20.742;2023-03-12T07:28:28;5.40;;;4.90;;
75171;SDS011;63750;52.418;20.742;2023-03-12T07:30:59;5.10;;;4.60;;
75171;SDS011;63750;52.418;20.742;2023-03-12T07:33:26;5.10;;;4.60;;
75171;SDS011;63750;52.418;20.742;2023-03-12T07:35:54;5.70;;;5.20;;
75171;SDS011;63750;52.418;20.742;2023-03-12T07:38:21;5.80;;;5.20;;
75171;SDS011;63750;52.418;20.742;2023-03-12T07:40:49;8.50;;;6.00;;
75171;SDS011;63750;52.418;20.742;2023-03-12T07:43:17;6.60;;;5.20;;
75171;SDS011;63750;52.418;20.742;2023-03-12T07:45:44;5.60;;;5.10;;
75171;SDS011;63750;52.418;20.742;2023-03-12T07:48:12;6.30;;;5.70;;
75171;SDS011;63750;52.418;20.742;2023-03-12T07:50:40;6.00;;;5.20;;
75171;SDS011;63750;52.418;20.742;2023-03-12T07:53:07;5.20;;;4.70;;
75171;SDS011;63750;52.418;20.742;2023-03-12T07:55:34;5.50;;;4.80;;
75171;SDS011;63750;52.418;20.742;2023-03-12T07:58:01;5.70;;;4.70;;
75171;SDS011;63750;52.418;20.742;2023-03-12T08:00:29;7.40;;;4.60;;
75171;SDS011;63750;52.418;20.742;2023-03-12T08:02:56;6.60;;;4.80;;
75171;SDS011;63750;52.418;20.742;2023-03-12T08:05:24;5.10;;;4.60;;
75171;SDS011;63750;52.418;20.742;2023-03-12T08:07:51;7.30;;;5.30;;
75171;SDS011;63750;52.418;20.742;2023-03-12T08:10:20;6.00;;;4.90;;
75171;SDS011;63750;52.418;20.742;2023-03-12T08:12:48;5.20;;;4.70;;
75171;SDS011;63750;52.418;20.742;2023-03-12T08:15:15;7.30;;;4.90;;
75171;SDS011;63750;52.418;20.742;2023-03-12T08:17:43;6.60;;;4.50;;
75171;SDS011;63750;52.418;20.742;2023-03-12T08:20:11;6.40;;;4.80;;
75171;SDS011;63750;52.418;20.742;2023-03-12T08:22:39;5.10;;;4.60;;
75171;SDS011;63750;52.418;20.742;2023-03-12T08:25:07;5.80;;;4.70;;
75171;SDS011;63750;52.418;20.742;2023-03-12T08:27:35;5.00;;;4.60;;
75171;SDS011;63750;52.418;20.742;2023-03-12T08:30:02;5.50;;;4.90;;
75171;SDS011;63750;52.418;20.742;2023-03-12T08:32:30;4.80;;;4.30;;
75171;SDS011;63750;52.418;20.742;2023-03-12T08:34:57;6.80;;;4.30;;
75171;SDS011;63750;52.418;20.742;2023-03-12T08:37:25;4.60;;;4.20;;
75171;SDS011;63750;52.418;20.742;2023-03-12T08:39:52;7.10;;;3.80;;
75171;SDS011;63750;52.418;20.742;2023-03-12T08:42:20;4.90;;;3.90;;
75171;SDS011;63750;52.418;20.742;2023-03-12T08:44:47;4.60;;;3.80;;
75171;SDS011;63750;52.418;20.742;2023-03-12T08:47:14;5.70;;;4.30;;
75171;SDS011;63750;52.418;20.742;2023-03-12T08:49:42;7.90;;;4.10;;
75171;SDS011;63750;52.418;20.742;2023-03-12T08:52:09;6.10;;;4.20;;
75171;SDS011;63750;52.418;20.742;2023-03-12T08:54:36;4.00;;;3.60;;
75171;SDS011;63750;52.418;20.742;2023-03-12T08:57:03;4.20;;;3.60;;
75171;SDS011;63750;52.418;20.742;2023-03-12T08:59:30;6.70;;;3.80;;
75171;SDS011;63750;52.418;20.742;2023-03-12T09:01:58;4.70;;;3.80;;
75171;SDS011;63750;52.418;20.742;2023-03-12T09:04:25;6.20;;;3.90;;
75171;SDS011;63750;52.418;20.742;2023-03-12T09:06:52;5.50;;;3.60;;
75171;SDS011;63750;52.418;20.742;2023-03-12T09:09:19;4.90;;;3.70;;
75171;SDS011;63750;52.418;20.742;2023-03-12T09:11:46;4.50;;;3.80;;
75171;SDS011;63750;52.418;20.742;2023-03-12T09:14:14;5.00;;;3.80;;
75171;SDS011;63750;52.418;20.742;2023-03-12T09:16:42;5.30;;;4.30;;
75171;SDS011;63750;52.418;20.742;2023-03-12T09:19:09;4.80;;;3.70;;
75171;SDS011;63750;52.418;20.742;2023-03-12T09:21:36;6.00;;;4.20;;
75171;SDS011;63750;52.418;20.742;2023-03-12T09:24:04;5.00;;;3.60;;
75171;SDS011;63750;52.418;20.742;2023-03-12T09:26:32;4.40;;;4.00;;
75171;SDS011;63750;52.418;20.742;2023-03-12T09:28:59;4.60;;;4.00;;
75171;SDS011;63750;52.418;20.742;2023-03-12T09:31:26;5.70;;;3.90;;
75171;SDS011;63750;52.418;20.742;2023-03-12T09:33:53;7.90;;;3.80;;
75171;SDS011;63750;52.418;20.742;2023-03-12T09:36:20;4.70;;;3.70;;
75171;SDS011;63750;52.418;20.742;2023-03-12T09:38:48;4.30;;;3.70;;
75171;SDS011;63750;52.418;20.742;2023-03-12T09:41:16;4.90;;;3.70;;
75171;SDS011;63750;52.418;20.742;2023-03-12T09:43:46;5.60;;;4.50;;
75171;SDS011;63750;52.418;20.742;2023-03-12T09:46:18;4.60;;;4.10;;
75171;SDS011;63750;52.418;20.742;2023-03-12T09:48:53;4.60;;;4.20;;
75171;SDS011;63750;52.418;20.742;2023-03-12T09:51:29;5.90;;;3.80;;
75171;SDS011;63750;52.418;20.742;2023-03-12T09:54:01;7.00;;;4.30;;
75171;SDS011;63750;52.418;20.742;2023-03-12T09:56:32;5.20;;;4.00;;
75171;SDS011;63750;52.418;20.742;2023-03-12T09:58:59;4.70;;;4.30;;
75171;SDS011;63750;52.418;20.742;2023-03-12T10:01:31;4.20;;;3.60;;
75171;SDS011;63750;52.418;20.742;2023-03-12T10:07:07;6.40;;;4.00;;
75171;SDS011;63750;52.418;20.742;2023-03-12T10:09:45;5.70;;;4.20;;
75171;SDS011;63750;52.418;20.742;2023-03-12T10:12:36;5.70;;;4.10;;
75171;SDS011;63750;52.418;20.742;2023-03-12T10:15:16;5.40;;;4.10;;
75171;SDS011;63750;52.418;20.742;2023-03-12T10:17:57;4.50;;;3.80;;
75171;SDS011;63750;52.418;20.742;2023-03-12T10:20:47;4.50;;;3.70;;
75171;SDS011;63750;52.418;20.742;2023-03-12T10:23:20;4.00;;;3.40;;
75171;SDS011;63750;52.418;20.742;2023-03-12T10:25:56;3.80;;;3.40;;
75171;SDS011;63750;52.418;20.742;2023-03-12T10:28:29;4.50;;;3.30;;
75171;SDS011;63750;52.418;20.742;2023-03-12T10:31:02;5.30;;;4.10;;
75171;SDS011;63750;52.418;20.742;2023-03-12T10:33:37;5.00;;;3.60;;
75171;SDS011;63750;52.418;20.742;2023-03-12T10:36:15;5.50;;;4.00;;
75171;SDS011;63750;52.418;20.742;2023-03-12T10:38:44;4.60;;;3.60;;
75171;SDS011;63750;52.418;20.742;2023-03-12T10:41:13;5.30;;;3.90;;
75171;SDS011;63750;52.418;20.742;2023-03-12T10:43:42;5.50;;;4.40;;
75171;SDS011;63750;52.418;20.742;2023-03-12T10:46:19;6.00;;;4.40;;
75171;SDS011;63750;52.418;20.742;2023-03-12T10:49:23;5.20;;;4.40;;
75171;SDS011;63750;52.418;20.742;2023-03-12T10:51:53;5.60;;;4.10;;
75171;SDS011;63750;52.418;20.742;2023-03-12T10:54:26;5.50;;;3.90;;
75171;SDS011;63750;52.418;20.742;2023-03-12T10:56:55;5.50;;;3.80;;
75171;SDS011;63750;52.418;20.742;2023-03-12T10:59:26;6.50;;;3.60;;
75171;SDS011;63750;52.418;20.742;2023-03-12T11:01:55;5.20;;;3.30;;
75171;SDS011;63750;52.418;20.742;2023-03-12T11:04:24;5.70;;;3.50;;
75171;SDS011;63750;52.418;20.742;2023-03-12T11:07:03;4.80;;;3.60;;
75171;SDS011;63750;52.418;20.742;2023-03-12T11:09:32;4.70;;;4.30;;
75171;SDS011;63750;52.418;20.742;2023-03-12T11:11:59;6.60;;;3.90;;
75171;SDS011;63750;52.418;20.742;2023-03-12T11:14:28;6.00;;;4.10;;
75171;SDS011;63750;52.418;20.742;2023-03-12T11:16:55;6.20;;;4.30;;
75171;SDS011;63750;52.418;20.742;2023-03-12T11:19:43;5.60;;;4.10;;
75171;SDS011;63750;52.418;20.742;2023-03-12T11:22:10;4.50;;;3.90;;
75171;SDS011;63750;52.418;20.742;2023-03-12T11:24:39;4.80;;;3.70;;
75171;SDS011;63750;52.418;20.742;2023-03-12T11:27:23;6.20;;;4.00;;
75171;SDS011;63750;52.418;20.742;2023-03-12T11:30:02;7.30;;;4.10;;
75171;SDS011;63750;52.418;20.742;2023-03-12T11:32:32;4.10;;;3.70;;
75171;SDS011;63750;52.418;20.742;2023-03-12T11:35:02;5.20;;;3.50;;
75171;SDS011;63750;52.418;20.742;2023-03-12T11:37:36;5.60;;;3.80;;
75171;SDS011;63750;52.418;20.742;2023-03-12T11:40:14;4.40;;;3.80;;
75171;SDS011;63750;52.418;20.742;2023-03-12T11:42:57;5.90;;;3.80;;
75171;SDS011;63750;52.418;20.742;2023-03-12T11:45:53;4.70;;;3.90;;
75171;SDS011;63750;52.418;20.742;2023-03-12T11:48:35;5.40;;;4.30;;
75171;SDS011;63750;52.418;20.742;2023-03-12T11:51:18;6.70;;;5.10;;
75171;SDS011;63750;52.418;20.742;2023-03-12T11:54:05;5.60;;;4.60;;
75171;SDS011;63750;52.418;20.742;2023-03-12T11:56:45;6.50;;;4.30;;
75171;SDS011;63750;52.418;20.742;2023-03-12T11:59:24;5.00;;;3.90;;
75171;SDS011;63750;52.418;20.742;2023-03-12T12:02:09;7.40;;;4.50;;
75171;SDS011;63750;52.418;20.742;2023-03-12T12:04:53;4.70;;;4.20;;
75171;SDS011;63750;52.418;20.742;2023-03-12T12:07:44;6.30;;;4.20;;
75171;SDS011;63750;52.418;20.742;2023-03-12T12:10:25;5.40;;;4.50;;
75171;SDS011;63750;52.418;20.742;2023-03-12T12:13:03;6.20;;;4.10;;
75171;SDS011;63750;52.418;20.742;2023-03-12T12:15:37;5.90;;;4.00;;
75171;SDS011;63750;52.418;20.742;2023-03-12T12:18:19;5.10;;;4.00;;
75171;SDS011;63750;52.418;20.742;2023-03-12T12:20:57;6.10;;;3.70;;
75171;SDS011;63750;52.418;20.742;2023-03-12T12:23:34;5.30;;;3.70;;
75171;SDS011;63750;52.418;20.742;2023-03-12T12:26:14;5.50;;;4.20;;
75171;SDS011;63750;52.418;20.742;2023-03-12T12:28:50;4.30;;;3.60;;
75171;SDS011;63750;52.418;20.742;2023-03-12T12:31:28;5.80;;;4.20;;
75171;SDS011;63750;52.418;20.742;2023-03-12T12:37:02;8.30;;;4.70;;
75171;SDS011;63750;52.418;20.742;2023-03-12T12:39:42;6.20;;;4.30;;
75171;SDS011;63750;52.418;20.742;2023-03-12T12:42:15;5.50;;;4.40;;
75171;SDS011;63750;52.418;20.742;2023-03-12T12:44:48;4.90;;;4.20;;
75171;SDS011;63750;52.418;20.742;2023-03-12T12:47:19;5.90;;;4.40;;
75171;SDS011;63750;52.418;20.742;2023-03-12T12:49:55;4.70;;;3.70;;
75171;SDS011;63750;52.418;20.742;2023-03-12T12:52:23;5.40;;;3.40;;
75171;SDS011;63750;52.418;20.742;2023-03-12T12:54:54;4.40;;;4.00;;
75171;SDS011;63750;52.418;20.742;2023-03-12T12:57:31;4.30;;;3.70;;
75171;SDS011;63750;52.418;20.742;2023-03-12T13:00:11;5.60;;;4.10;;
75171;SDS011;63750;52.418;20.742;2023-03-12T13:02:46;5.20;;;3.90;;
75171;SDS011;63750;52.418;20.742;2023-03-12T13:05:18;4.50;;;3.50;;
75171;SDS011;63750;52.418;20.742;2023-03-12T13:07:47;4.30;;;3.90;;
75171;SDS011;63750;52.418;20.742;2023-03-12T13:13:09;4.60;;;4.20;;
75171;SDS011;63750;52.418;20.742;2023-03-12T13:15:43;5.80;;;4.40;;
75171;SDS011;63750;52.418;20.742;2023-03-12T13:18:21;5.60;;;3.90;;
75171;SDS011;63750;52.418;20.742;2023-03-12T13:21:04;4.40;;;3.90;;
75171;SDS011;63750;52.418;20.742;2023-03-12T13:23:42;8.60;;;4.60;;
75171;SDS011;63750;52.418;20.742;2023-03-12T13:26:17;4.80;;;4.00;;
75171;SDS011;63750;52.418;20.742;2023-03-12T13:29:10;8.90;;;5.50;;
75171;SDS011;63750;52.418;20.742;2023-03-12T13:31:44;9.10;;;5.90;;
75171;SDS011;63750;52.418;20.742;2023-03-12T13:37:19;10.30;;;6.60;;
75171;SDS011;63750;52.418;20.742;2023-03-12T13:39:56;6.60;;;4.20;;
75171;SDS011;63750;52.418;20.742;2023-03-12T13:42:34;4.70;;;4.10;;
75171;SDS011;63750;52.418;20.742;2023-03-12T13:45:21;5.40;;;4.40;;
75171;SDS011;63750;52.418;20.742;2023-03-12T13:47:51;8.10;;;5.00;;
75171;SDS011;63750;52.418;20.742;2023-03-12T13:50:23;4.40;;;4.00;;
75171;SDS011;63750;52.418;20.742;2023-03-12T13:52:56;8.10;;;5.20;;
75171;SDS011;63750;52.418;20.742;2023-03-12T13:55:29;7.10;;;5.10;;
75171;SDS011;63750;52.418;20.742;2023-03-12T13:57:59;5.10;;;4.20;;
75171;SDS011;63750;52.418;20.742;2023-03-12T14:00:36;4.80;;;4.30;;
75171;SDS011;63750;52.418;20.742;2023-03-12T14:03:11;4.90;;;4.20;;
75171;SDS011;63750;52.418;20.742;2023-03-12T14:05:46;4.30;;;3.90;;
75171;SDS011;63750;52.418;20.742;2023-03-12T14:08:26;5.60;;;4.10;;
75171;SDS011;63750;52.418;20.742;2023-03-12T14:11:19;5.50;;;4.20;;
75171;SDS011;63750;52.418;20.742;2023-03-12T14:14:02;6.10;;;3.90;;
75171;SDS011;63750;52.418;20.742;2023-03-12T14:16:53;6.10;;;4.50;;
75171;SDS011;63750;52.418;20.742;2023-03-12T14:19:23;6.70;;;4.60;;
75171;SDS011;63750;52.418;20.742;2023-03-12T14:21:52;6.50;;;5.00;;
75171;SDS011;63750;52.418;20.742;2023-03-12T14:24:24;7.00;;;4.70;;
75171;SDS011;63750;52.418;20.742;2023-03-12T14:26:54;5.50;;;4.50;;
75171;SDS011;63750;52.418;20.742;2023-03-12T14:29:24;4.70;;;4.30;;
75171;SDS011;63750;52.418;20.742;2023-03-12T14:31:55;5.30;;;4.40;;
75171;SDS011;63750;52.418;20.742;2023-03-12T14:34:27;6.50;;;4.70;;
75171;SDS011;63750;52.418;20.742;2023-03-12T14:37:01;4.30;;;3.90;;
75171;SDS011;63750;52.418;20.742;2023-03-12T14:39:35;5.80;;;4.50;;
75171;SDS011;63750;52.418;20.742;2023-03-12T14:42:08;4.20;;;3.50;;
75171;SDS011;63750;52.418;20.742;2023-03-12T14:44:51;5.40;;;4.50;;
75171;SDS011;63750;52.418;20.742;2023-03-12T14:47:20;4.50;;;4.10;;
75171;SDS011;63750;52.418;20.742;2023-03-12T14:49:47;6.60;;;5.60;;
75171;SDS011;63750;52.418;20.742;2023-03-12T14:52:20;5.90;;;4.10;;
75171;SDS011;63750;52.418;20.742;2023-03-12T14:54:55;6.50;;;4.70;;
75171;SDS011;63750;52.418;20.742;2023-03-12T14:57:24;4.90;;;4.20;;
75171;SDS011;63750;52.418;20.742;2023-03-12T14:59:52;7.40;;;6.10;;